createdAt,value
2022-10-26T00:00:50.716Z,99.21
2022-10-26T00:01:50.780Z,98.50
2022-10-26T00:02:51.219Z,98.60
2022-10-26T00:03:50.600Z,98.70
2022-10-26T00:04:50.552Z,99.21
2022-10-26T00:05:50.510Z,99.31
2022-10-26T00:06:50.470Z,99.11
2022-10-26T00:07:50.485Z,98.91
2022-10-26T00:08:50.390Z,98.70
2022-10-26T00:09:50.359Z,98.91
2022-10-26T00:10:50.310Z,98.91
2022-10-26T00:11:50.273Z,99.21
2022-10-26T00:12:50.568Z,98.70
2022-10-26T00:13:50.204Z,98.80
2022-10-26T00:14:50.150Z,98.80
2022-10-26T00:15:50.158Z,98.70
2022-10-26T00:16:50.098Z,98.30
2022-10-26T00:17:50.340Z,98.66
2022-10-26T00:18:49.992Z,99.01
2022-10-26T00:19:49.950Z,99.31
2022-10-26T00:20:49.910Z,98.80
2022-10-26T00:21:49.888Z,98.55
2022-10-26T00:22:49.832Z,99.16
2022-10-26T00:23:49.790Z,99.21
2022-10-26T00:24:49.755Z,98.75
2022-10-26T00:25:49.722Z,98.86
2022-10-26T00:26:49.673Z,99.06
2022-10-26T00:27:49.889Z,98.55
2022-10-26T00:28:49.607Z,98.55
2022-10-26T00:29:49.550Z,98.60
2022-10-26T00:30:49.514Z,98.45
2022-10-26T00:31:49.469Z,98.25
2022-10-26T00:32:49.432Z,98.25
2022-10-26T00:33:49.391Z,98.55
2022-10-26T00:34:49.382Z,99.06
2022-10-26T00:35:49.317Z,98.45
2022-10-26T00:36:49.272Z,98.66
2022-10-26T00:37:49.498Z,97.84
2022-10-26T00:38:49.195Z,98.45
2022-10-26T00:39:49.152Z,98.45
2022-10-26T00:40:49.144Z,98.20
2022-10-26T00:41:49.084Z,97.94
2022-10-26T00:42:49.284Z,98.14
2022-10-26T00:43:49.001Z,98.45
2022-10-26T00:44:48.955Z,98.45
2022-10-26T00:45:48.913Z,97.94
2022-10-26T00:46:48.887Z,98.20
2022-10-26T00:47:48.855Z,98.45
2022-10-26T00:48:48.795Z,98.14
2022-10-26T00:49:48.753Z,98.25
2022-10-26T00:50:48.716Z,98.35
2022-10-26T00:51:48.676Z,98.55
2022-10-26T00:52:48.818Z,98.35
2022-10-26T00:53:48.614Z,98.45
2022-10-26T00:54:48.555Z,99.47
2022-10-26T00:55:48.514Z,98.25
2022-10-26T00:56:48.475Z,98.35
2022-10-26T00:57:48.435Z,98.55
2022-10-26T00:58:48.404Z,98.66
2022-10-26T00:59:48.371Z,98.14
2022-10-26T01:00:48.315Z,98.45
2022-10-26T01:01:48.311Z,98.14
2022-10-26T01:02:48.543Z,98.05
2022-10-26T01:03:48.246Z,98.30
2022-10-26T01:04:48.156Z,98.25
2022-10-26T01:05:48.131Z,97.94
2022-10-26T01:06:48.079Z,98.35
2022-10-26T01:07:48.253Z,99.06
2022-10-26T01:08:47.999Z,98.55
2022-10-26T01:09:47.955Z,98.45
2022-10-26T01:10:47.923Z,98.05
2022-10-26T01:11:47.887Z,98.30
2022-10-26T01:12:47.837Z,98.35
2022-10-26T01:13:47.799Z,98.86
2022-10-26T01:14:47.758Z,98.30
2022-10-26T01:15:47.717Z,98.45
2022-10-26T01:16:47.679Z,98.00
2022-10-26T01:17:47.947Z,99.11
2022-10-26T01:18:47.599Z,98.30
2022-10-26T01:19:47.561Z,98.61
2022-10-26T01:20:47.528Z,98.71
2022-10-26T01:21:47.479Z,98.61
2022-10-26T01:22:47.437Z,98.71
2022-10-26T01:23:47.413Z,98.00
2022-10-26T01:24:47.362Z,98.10
2022-10-26T01:25:47.320Z,98.61
2022-10-26T01:26:47.321Z,98.20
2022-10-26T01:27:47.607Z,98.00
2022-10-26T01:28:47.199Z,98.00
2022-10-26T01:29:47.172Z,98.26
2022-10-26T01:30:47.123Z,97.65
2022-10-26T01:31:47.089Z,97.65
2022-10-26T01:32:47.039Z,97.69
2022-10-26T01:33:47.039Z,97.49
2022-10-26T01:34:46.977Z,97.39
2022-10-26T01:35:46.939Z,98.05
2022-10-26T01:36:46.881Z,97.04
2022-10-26T01:37:47.196Z,97.24
2022-10-26T01:38:46.801Z,97.34
2022-10-26T01:39:46.764Z,97.80
2022-10-26T01:40:46.722Z,97.24
2022-10-26T01:41:46.697Z,96.73
2022-10-26T01:42:46.642Z,97.75
2022-10-26T01:43:46.604Z,97.55
2022-10-26T01:44:46.564Z,96.94
2022-10-26T01:45:46.539Z,97.24
2022-10-26T01:46:46.486Z,97.75
2022-10-26T01:47:46.694Z,96.99
2022-10-26T01:48:46.405Z,97.50
2022-10-26T01:49:46.368Z,96.94
2022-10-26T01:50:46.327Z,96.73
2022-10-26T01:51:46.288Z,96.89
2022-10-26T01:52:46.249Z,96.73
2022-10-26T01:53:46.221Z,97.50
2022-10-26T01:54:46.168Z,96.79
2022-10-26T01:55:46.129Z,96.83
2022-10-26T01:56:46.085Z,96.69
2022-10-26T01:57:46.130Z,96.94
2022-10-26T01:58:46.007Z,96.94
2022-10-26T01:59:45.979Z,97.65
2022-10-26T02:00:45.929Z,96.99
2022-10-26T02:01:45.992Z,96.83
2022-10-26T02:02:45.850Z,96.94
2022-10-26T02:03:45.834Z,96.89
2022-10-26T02:04:45.783Z,96.69
2022-10-26T02:05:45.734Z,96.69
2022-10-26T02:06:45.691Z,97.20
2022-10-26T02:07:45.778Z,96.59
2022-10-26T02:08:45.612Z,96.69
2022-10-26T02:09:45.576Z,96.99
2022-10-26T02:10:45.545Z,96.69
2022-10-26T02:11:45.495Z,96.83
2022-10-26T02:12:45.453Z,96.99
2022-10-26T02:13:45.415Z,96.89
2022-10-26T02:14:45.373Z,95.98
2022-10-26T02:15:45.334Z,96.89
2022-10-26T02:16:45.309Z,95.78
2022-10-26T02:17:45.367Z,96.44
2022-10-26T02:18:45.229Z,96.18
2022-10-26T02:19:45.179Z,95.94
2022-10-26T02:20:45.137Z,95.78
2022-10-26T02:21:45.098Z,96.38
2022-10-26T02:22:45.059Z,97.05
2022-10-26T02:23:45.032Z,96.95
2022-10-26T02:24:44.978Z,95.94
2022-10-26T02:25:44.954Z,95.94
2022-10-26T02:26:44.899Z,95.94
2022-10-26T02:27:44.867Z,96.03
2022-10-26T02:28:44.831Z,95.98
2022-10-26T02:29:44.782Z,95.83
2022-10-26T02:30:44.742Z,96.08
2022-10-26T02:31:44.702Z,96.75
2022-10-26T02:32:44.665Z,95.53
2022-10-26T02:33:44.665Z,95.53
2022-10-26T02:34:44.606Z,95.98
2022-10-26T02:35:44.547Z,96.34
2022-10-26T02:36:44.516Z,96.14
2022-10-26T02:37:44.475Z,95.73
2022-10-26T02:38:44.429Z,95.94
2022-10-26T02:39:44.385Z,95.94
2022-10-26T02:40:44.359Z,95.73
2022-10-26T02:41:44.309Z,95.83
2022-10-26T02:42:44.270Z,95.83
2022-10-26T02:43:44.231Z,96.64
2022-10-26T02:44:44.192Z,96.64
2022-10-26T02:45:44.152Z,95.83
2022-10-26T02:46:44.123Z,95.73
2022-10-26T02:47:44.073Z,95.94
2022-10-26T02:48:44.032Z,95.38
2022-10-26T02:49:43.992Z,95.63
2022-10-26T02:50:43.951Z,95.48
2022-10-26T02:51:43.938Z,95.83
2022-10-26T02:52:43.886Z,95.83
2022-10-26T02:53:43.835Z,96.90
2022-10-26T02:54:43.795Z,95.73
2022-10-26T02:55:43.755Z,95.83
2022-10-26T02:56:43.716Z,95.89
2022-10-26T02:57:43.673Z,96.95
2022-10-26T02:58:43.646Z,96.75
2022-10-26T02:59:43.597Z,95.63
2022-10-26T03:00:43.567Z,95.48
2022-10-26T03:01:43.617Z,95.58
2022-10-26T03:02:46.138Z,95.07
2022-10-26T03:03:43.510Z,95.38
2022-10-26T03:04:43.402Z,95.48
2022-10-26T03:05:43.363Z,95.07
2022-10-26T03:06:43.335Z,95.28
2022-10-26T03:07:43.283Z,94.98
2022-10-26T03:08:43.243Z,95.07
2022-10-26T03:09:43.207Z,95.89
2022-10-26T03:10:43.166Z,95.28
2022-10-26T03:11:43.126Z,95.99
2022-10-26T03:12:43.099Z,95.79
2022-10-26T03:13:43.049Z,95.58
2022-10-26T03:14:43.023Z,94.83
2022-10-26T03:15:42.977Z,95.07
2022-10-26T03:16:42.990Z,94.87
2022-10-26T03:17:42.907Z,95.03
2022-10-26T03:18:42.852Z,94.32
2022-10-26T03:19:42.812Z,95.03
2022-10-26T03:20:42.786Z,94.48
2022-10-26T03:21:42.733Z,94.42
2022-10-26T03:22:42.690Z,94.32
2022-10-26T03:23:42.656Z,94.93
2022-10-26T03:24:42.630Z,94.62
2022-10-26T03:25:42.578Z,95.03
2022-10-26T03:26:42.553Z,95.13
2022-10-26T03:27:42.496Z,94.42
2022-10-26T03:28:42.455Z,95.23
2022-10-26T03:29:42.421Z,94.32
2022-10-26T03:30:42.375Z,94.83
2022-10-26T03:31:42.351Z,94.93
2022-10-26T03:32:42.312Z,94.93
2022-10-26T03:33:42.261Z,94.12
2022-10-26T03:34:42.224Z,93.91
2022-10-26T03:35:42.181Z,94.22
2022-10-26T03:36:42.142Z,94.42
2022-10-26T03:37:42.209Z,95.34
2022-10-26T03:38:42.062Z,94.73
2022-10-26T03:39:42.023Z,94.62
2022-10-26T03:40:41.986Z,94.02
2022-10-26T03:41:42.026Z,94.12
2022-10-26T03:42:41.913Z,94.32
2022-10-26T03:43:41.881Z,94.73
2022-10-26T03:44:41.827Z,94.12
2022-10-26T03:45:41.788Z,93.51
2022-10-26T03:46:41.749Z,93.91
2022-10-26T03:47:41.710Z,93.81
2022-10-26T03:48:41.672Z,94.32
2022-10-26T03:49:41.644Z,94.58
2022-10-26T03:50:41.591Z,94.58
2022-10-26T03:51:41.554Z,94.78
2022-10-26T03:52:41.513Z,94.07
2022-10-26T03:53:41.474Z,94.48
2022-10-26T03:54:41.432Z,94.62
2022-10-26T03:55:41.403Z,94.53
2022-10-26T03:56:41.356Z,94.93
2022-10-26T03:57:41.324Z,94.58
2022-10-26T03:58:41.275Z,94.62
2022-10-26T03:59:41.239Z,94.22
2022-10-26T04:00:41.199Z,94.22
2022-10-26T04:01:41.207Z,94.38
2022-10-26T04:02:41.119Z,94.27
2022-10-26T04:03:41.082Z,94.38
2022-10-26T04:04:41.170Z,94.27
2022-10-26T04:05:41.004Z,94.38
2022-10-26T04:06:41.019Z,94.48
2022-10-26T04:07:40.934Z,94.18
2022-10-26T04:08:40.883Z,94.68
2022-10-26T04:09:40.844Z,94.27
2022-10-26T04:10:40.807Z,94.58
2022-10-26T04:11:40.767Z,93.87
2022-10-26T04:12:40.728Z,94.38
2022-10-26T04:13:40.699Z,94.48
2022-10-26T04:14:40.647Z,94.89
2022-10-26T04:15:40.610Z,94.58
2022-10-26T04:16:40.572Z,94.38
2022-10-26T04:17:40.536Z,94.18
2022-10-26T04:18:40.501Z,94.27
2022-10-26T04:19:40.453Z,94.27
2022-10-26T04:20:40.421Z,94.78
2022-10-26T04:21:40.374Z,94.38
2022-10-26T04:22:40.334Z,94.48
2022-10-26T04:23:40.297Z,94.18
2022-10-26T04:24:40.263Z,94.38
2022-10-26T04:25:40.229Z,94.18
2022-10-26T04:26:40.288Z,94.58
2022-10-26T04:27:40.140Z,94.78
2022-10-26T04:28:40.105Z,94.48
2022-10-26T04:29:40.060Z,94.68
2022-10-26T04:30:40.033Z,94.34
2022-10-26T04:31:40.027Z,94.18
2022-10-26T04:32:39.958Z,94.58
2022-10-26T04:33:39.904Z,94.27
2022-10-26T04:34:39.866Z,93.97
2022-10-26T04:35:39.825Z,94.03
2022-10-26T04:36:39.784Z,94.58
2022-10-26T04:37:39.767Z,94.27
2022-10-26T04:38:39.708Z,94.58
2022-10-26T04:39:39.669Z,94.58
2022-10-26T04:40:39.634Z,93.77
2022-10-26T04:41:39.594Z,93.97
2022-10-26T04:42:39.551Z,94.18
2022-10-26T04:43:39.521Z,93.57
2022-10-26T04:44:39.475Z,94.48
2022-10-26T04:45:39.436Z,94.03
2022-10-26T04:46:39.394Z,93.93
2022-10-26T04:47:39.355Z,94.54
2022-10-26T04:48:39.328Z,94.18
2022-10-26T04:49:39.276Z,94.58
2022-10-26T04:50:39.247Z,94.13
2022-10-26T04:51:39.198Z,94.74
2022-10-26T04:52:39.157Z,94.43
2022-10-26T04:53:39.122Z,94.34
2022-10-26T04:54:39.082Z,94.23
2022-10-26T04:55:39.060Z,94.03
2022-10-26T04:56:39.032Z,94.23
2022-10-26T04:57:38.964Z,94.03
2022-10-26T04:58:38.923Z,94.03
2022-10-26T04:59:38.887Z,94.13
2022-10-26T05:00:38.849Z,94.23
2022-10-26T05:01:38.955Z,94.13
2022-10-26T05:02:38.766Z,93.73
2022-10-26T05:03:38.730Z,94.13
2022-10-26T05:04:38.691Z,93.83
2022-10-26T05:05:38.653Z,93.62
2022-10-26T05:06:38.611Z,94.54
2022-10-26T05:07:38.591Z,94.43
2022-10-26T05:08:38.535Z,94.03
2022-10-26T05:09:38.494Z,94.54
2022-10-26T05:10:38.455Z,94.27
2022-10-26T05:11:38.421Z,94.54
2022-10-26T05:12:38.375Z,94.34
2022-10-26T05:13:38.356Z,94.68
2022-10-26T05:14:38.299Z,95.25
2022-10-26T05:15:38.262Z,94.38
2022-10-26T05:16:38.232Z,94.68
2022-10-26T05:17:38.185Z,94.68
2022-10-26T05:18:38.145Z,95.09
2022-10-26T05:19:38.115Z,94.78
2022-10-26T05:20:38.070Z,95.19
2022-10-26T05:21:38.086Z,95.09
2022-10-26T05:22:37.985Z,94.58
2022-10-26T05:23:37.961Z,94.98
2022-10-26T05:24:37.910Z,94.98
2022-10-26T05:25:37.883Z,94.58
2022-10-26T05:26:37.833Z,94.89
2022-10-26T05:27:37.792Z,95.29
2022-10-26T05:28:37.754Z,94.89
2022-10-26T05:29:37.713Z,95.19
2022-10-26T05:30:37.672Z,95.19
2022-10-26T05:31:37.649Z,95.79
2022-10-26T05:32:37.593Z,96.30
2022-10-26T05:33:37.557Z,94.89
2022-10-26T05:34:40.791Z,94.68
2022-10-26T05:35:37.482Z,94.78
2022-10-26T05:36:37.438Z,95.79
2022-10-26T05:37:37.419Z,95.19
2022-10-26T05:38:37.359Z,95.45
2022-10-26T05:39:37.322Z,94.78
2022-10-26T05:40:37.281Z,95.79
2022-10-26T05:41:37.241Z,95.59
2022-10-26T05:42:37.224Z,94.68
2022-10-26T05:43:37.179Z,95.19
2022-10-26T05:44:37.124Z,95.59
2022-10-26T05:45:37.084Z,94.98
2022-10-26T05:46:37.080Z,94.78
2022-10-26T05:47:37.006Z,95.19
2022-10-26T05:48:36.967Z,96.20
2022-10-26T05:49:36.939Z,94.78
2022-10-26T05:50:36.900Z,96.10
2022-10-26T05:51:36.850Z,95.50
2022-10-26T05:52:36.822Z,95.19
2022-10-26T05:53:36.780Z,95.19
2022-10-26T05:54:36.742Z,94.98
2022-10-26T05:55:36.691Z,94.78
2022-10-26T05:56:36.653Z,95.09
2022-10-26T05:57:36.637Z,95.19
2022-10-26T05:58:36.581Z,94.58
2022-10-26T05:59:36.541Z,94.98
2022-10-26T06:00:36.498Z,94.68
2022-10-26T06:01:36.538Z,94.89
2022-10-26T06:02:36.471Z,94.38
2022-10-26T06:03:36.405Z,93.73
2022-10-26T06:04:36.343Z,93.93
2022-10-26T06:05:36.298Z,94.13
2022-10-26T06:06:36.262Z,94.43
2022-10-26T06:07:36.239Z,93.73
2022-10-26T06:08:36.197Z,93.87
2022-10-26T06:09:36.148Z,94.34
2022-10-26T06:10:36.109Z,94.07
2022-10-26T06:11:36.085Z,93.26
2022-10-26T06:12:36.031Z,93.52
2022-10-26T06:13:35.989Z,94.03
2022-10-26T06:14:35.963Z,94.18
2022-10-26T06:15:35.909Z,93.97
2022-10-26T06:16:35.871Z,93.42
2022-10-26T06:17:35.833Z,93.32
2022-10-26T06:18:35.802Z,93.02
2022-10-26T06:19:35.755Z,93.02
2022-10-26T06:20:35.726Z,93.67
2022-10-26T06:21:35.677Z,94.03
2022-10-26T06:22:35.638Z,94.23
2022-10-26T06:23:35.599Z,93.32
2022-10-26T06:24:35.756Z,93.52
2022-10-26T06:25:35.532Z,93.62
2022-10-26T06:26:35.488Z,94.03
2022-10-26T06:27:35.441Z,94.13
2022-10-26T06:28:35.409Z,94.07
2022-10-26T06:29:35.369Z,93.83
2022-10-26T06:30:35.336Z,94.38
2022-10-26T06:31:35.293Z,94.68
2022-10-26T06:32:35.251Z,94.68
2022-10-26T06:33:35.209Z,95.09
2022-10-26T06:34:35.170Z,94.78
2022-10-26T06:35:35.147Z,95.09
2022-10-26T06:36:35.098Z,94.78
2022-10-26T06:37:35.054Z,94.68
2022-10-26T06:38:35.016Z,94.68
2022-10-26T06:39:34.974Z,94.27
2022-10-26T06:40:34.940Z,94.27
2022-10-26T06:41:34.953Z,94.38
2022-10-26T06:42:34.858Z,95.09
2022-10-26T06:43:34.818Z,94.38
2022-10-26T06:44:34.781Z,93.87
2022-10-26T06:45:34.739Z,94.03
2022-10-26T06:46:34.714Z,93.83
2022-10-26T06:47:34.689Z,93.73
2022-10-26T06:48:34.627Z,93.12
2022-10-26T06:49:34.588Z,93.32
2022-10-26T06:50:34.547Z,93.62
2022-10-26T06:51:34.509Z,93.32
2022-10-26T06:52:34.467Z,93.62
2022-10-26T06:53:34.476Z,93.42
2022-10-26T06:54:34.401Z,93.02
2022-10-26T06:55:34.354Z,92.71
2022-10-26T06:56:34.313Z,92.51
2022-10-26T06:57:34.274Z,92.87
2022-10-26T06:58:34.236Z,92.57
2022-10-26T06:59:34.206Z,92.16
2022-10-26T07:00:34.160Z,91.96
2022-10-26T07:01:34.249Z,91.96
2022-10-26T07:02:34.212Z,91.66
2022-10-26T07:03:34.061Z,91.66
2022-10-26T07:04:34.001Z,91.86
2022-10-26T07:05:33.974Z,91.46
2022-10-26T07:06:36.782Z,91.46
2022-10-26T07:07:33.885Z,91.25
2022-10-26T07:08:33.844Z,91.46
2022-10-26T07:09:33.806Z,91.55
2022-10-26T07:10:33.778Z,91.55
2022-10-26T07:11:33.725Z,91.46
2022-10-26T07:12:33.694Z,91.51
2022-10-26T07:13:33.651Z,91.75
2022-10-26T07:14:33.611Z,91.46
2022-10-26T07:15:33.579Z,91.35
2022-10-26T07:16:33.546Z,91.41
2022-10-26T07:17:33.493Z,91.82
2022-10-26T07:18:33.455Z,91.41
2022-10-26T07:19:33.418Z,91.82
2022-10-26T07:20:33.381Z,91.41
2022-10-26T07:21:33.335Z,91.61
2022-10-26T07:22:33.311Z,91.20
2022-10-26T07:23:33.378Z,90.76
2022-10-26T07:24:33.221Z,90.76
2022-10-26T07:25:33.181Z,90.76
2022-10-26T07:26:33.143Z,90.66
2022-10-26T07:27:33.104Z,91.27
2022-10-26T07:28:33.084Z,90.25
2022-10-26T07:29:33.033Z,90.66
2022-10-26T07:30:33.007Z,90.21
2022-10-26T07:31:32.951Z,88.96
2022-10-26T07:32:32.911Z,87.56
2022-10-26T07:33:35.786Z,88.26
2022-10-26T07:34:32.835Z,87.86
2022-10-26T07:35:32.812Z,87.52
2022-10-26T07:36:32.755Z,87.21
2022-10-26T07:37:32.718Z,87.32
2022-10-26T07:38:32.700Z,87.18
2022-10-26T07:39:32.643Z,85.86
2022-10-26T07:40:32.606Z,86.51
2022-10-26T07:41:32.577Z,87.27
2022-10-26T07:42:32.528Z,85.96
2022-10-26T07:43:32.492Z,86.57
2022-10-26T07:44:32.455Z,87.21
2022-10-26T07:45:32.415Z,87.86
2022-10-26T07:46:32.381Z,88.47
2022-10-26T07:47:32.351Z,88.51
2022-10-26T07:48:32.347Z,88.81
2022-10-26T07:49:32.265Z,88.26
2022-10-26T07:50:32.229Z,88.87
2022-10-26T07:51:32.193Z,88.17
2022-10-26T07:52:32.150Z,88.51
2022-10-26T07:53:32.135Z,88.71
2022-10-26T07:54:32.087Z,89.32
2022-10-26T07:55:32.039Z,88.81
2022-10-26T07:56:32.008Z,88.23
2022-10-26T07:57:31.966Z,86.93
2022-10-26T07:58:31.932Z,85.00
2022-10-26T07:59:31.899Z,83.48
2022-10-26T08:00:31.886Z,83.79
2022-10-26T08:01:31.939Z,84.43
2022-10-26T08:02:31.780Z,83.48
2022-10-26T08:03:31.740Z,84.23
2022-10-26T08:04:31.717Z,84.23
2022-10-26T08:06:31.631Z,83.08
2022-10-26T08:07:31.599Z,83.14
2022-10-26T08:08:31.561Z,82.78
2022-10-26T08:09:31.518Z,82.48
2022-10-26T08:10:31.509Z,82.84
2022-10-26T08:11:31.453Z,82.56
2022-10-26T08:12:31.416Z,81.01
2022-10-26T08:13:31.374Z,80.01
2022-10-26T08:14:31.338Z,80.37
2022-10-26T08:15:31.298Z,78.33
2022-10-26T08:16:31.280Z,77.69
2022-10-26T08:17:31.233Z,77.99
2022-10-26T08:18:31.190Z,77.89
2022-10-26T08:19:31.157Z,77.95
2022-10-26T08:20:31.130Z,76.34
2022-10-26T08:21:43.972Z,76.34
2022-10-26T08:22:31.066Z,76.31
2022-10-26T08:23:31.020Z,75.81
2022-10-26T08:24:30.980Z,75.21
2022-10-26T08:25:30.946Z,77.48
2022-10-26T08:26:30.911Z,78.03
2022-10-26T08:27:30.881Z,78.53
2022-10-26T08:28:30.856Z,78.03
2022-10-26T08:29:30.811Z,77.48
2022-10-26T08:30:30.861Z,76.45
2022-10-26T08:31:30.751Z,75.67
2022-10-26T08:32:30.704Z,75.10
2022-10-26T08:33:30.674Z,75.21
2022-10-26T08:34:30.641Z,75.31
2022-10-26T08:35:30.617Z,76.85
2022-10-26T08:36:30.569Z,76.61
2022-10-26T08:37:30.532Z,76.41
2022-10-26T08:38:30.499Z,75.43
2022-10-26T08:39:30.465Z,74.33
2022-10-26T08:40:30.430Z,74.13
2022-10-26T08:41:30.413Z,73.63
2022-10-26T08:42:30.365Z,74.33
2022-10-26T08:43:30.326Z,74.54
2022-10-26T08:44:30.294Z,75.07
2022-10-26T08:45:36.475Z,75.31
2022-10-26T08:46:30.225Z,76.21
2022-10-26T08:47:30.200Z,79.21
2022-10-26T08:48:30.160Z,80.11
2022-10-26T08:49:30.122Z,80.58
2022-10-26T08:50:30.087Z,79.94
2022-10-26T08:51:30.054Z,79.30
2022-10-26T08:52:30.030Z,81.09
2022-10-26T08:53:29.983Z,80.55
2022-10-26T08:54:29.949Z,80.21
2022-10-26T08:55:29.919Z,80.73
2022-10-26T08:56:29.882Z,81.59
2022-10-26T08:57:29.847Z,82.88
2022-10-26T08:58:37.056Z,82.94
2022-10-26T08:59:29.774Z,82.30
2022-10-26T09:00:29.740Z,80.71
2022-10-26T09:01:29.789Z,79.63
2022-10-26T09:02:29.670Z,77.99
2022-10-26T09:03:29.635Z,77.05
2022-10-26T09:04:29.620Z,76.21
2022-10-26T09:05:32.244Z,75.37
2022-10-26T09:06:29.528Z,75.04
2022-10-26T09:07:29.493Z,73.39
2022-10-26T09:08:29.460Z,74.60
2022-10-26T09:09:29.425Z,75.24
2022-10-26T09:10:29.421Z,77.52
2022-10-26T09:11:29.357Z,79.21
2022-10-26T09:12:29.326Z,81.15
2022-10-26T09:13:29.284Z,82.60
2022-10-26T09:14:29.251Z,82.54
2022-10-26T09:15:29.232Z,82.64
2022-10-26T09:16:29.185Z,83.79
2022-10-26T09:17:29.149Z,82.88
2022-10-26T09:18:29.115Z,83.48
2022-10-26T09:19:29.077Z,83.31
2022-10-26T09:20:29.057Z,83.03
2022-10-26T09:21:29.025Z,80.68
2022-10-26T09:22:30.623Z,80.81
2022-10-26T09:23:28.937Z,81.32
2022-10-26T09:24:28.907Z,82.06
2022-10-26T09:25:28.868Z,82.10
2022-10-26T09:26:28.844Z,82.94
2022-10-26T09:27:28.798Z,83.34
2022-10-26T09:28:28.762Z,83.51
2022-10-26T09:29:28.726Z,82.22
2022-10-26T09:30:28.693Z,80.63
2022-10-26T09:31:28.666Z,78.92
2022-10-26T09:32:28.625Z,76.64
2022-10-26T09:33:28.586Z,75.26
2022-10-26T09:34:28.550Z,73.59
2022-10-26T09:36:28.483Z,71.52
2022-10-26T09:37:28.455Z,70.39
2022-10-26T09:38:28.416Z,70.59
2022-10-26T09:39:28.378Z,70.09
2022-10-26T09:40:28.344Z,69.66
2022-10-26T09:41:31.617Z,69.29
2022-10-26T09:42:28.275Z,69.69
2022-10-26T09:43:28.246Z,71.12
2022-10-26T09:44:28.207Z,73.39
2022-10-26T09:45:28.171Z,74.30
2022-10-26T09:46:28.138Z,73.66
2022-10-26T09:47:28.101Z,74.66
2022-10-26T09:48:28.083Z,74.56
2022-10-26T09:49:28.036Z,72.59
2022-10-26T09:50:28.003Z,72.83
2022-10-26T09:51:27.965Z,72.42
2022-10-26T09:52:27.936Z,72.92
2022-10-26T09:53:27.905Z,73.66
2022-10-26T09:54:27.876Z,75.10
2022-10-26T09:55:27.846Z,74.40
2022-10-26T09:56:27.797Z,74.22
2022-10-26T09:57:27.768Z,73.72
2022-10-26T09:58:27.736Z,72.39
2022-10-26T09:59:27.714Z,73.46
2022-10-26T10:00:27.706Z,73.76
2022-10-26T10:01:27.716Z,73.76
2022-10-26T10:02:27.643Z,72.63
2022-10-26T10:03:27.563Z,73.03
2022-10-26T10:04:27.526Z,73.39
2022-10-26T10:05:49.373Z,73.39
2022-10-26T10:06:27.458Z,72.79
2022-10-26T10:07:27.434Z,72.63
2022-10-26T10:08:27.398Z,74.37
2022-10-26T10:09:27.371Z,73.19
2022-10-26T10:10:27.325Z,73.39
2022-10-26T10:11:27.304Z,73.59
2022-10-26T10:12:27.259Z,72.89
2022-10-26T10:13:27.226Z,72.79
2022-10-26T10:14:27.205Z,73.69
2022-10-26T10:15:27.165Z,72.36
2022-10-26T10:16:27.134Z,72.72
2022-10-26T10:17:27.093Z,71.66
2022-10-26T10:18:27.057Z,73.56
2022-10-26T10:19:27.043Z,72.76
2022-10-26T10:20:26.993Z,73.25
2022-10-26T10:21:26.974Z,73.02
2022-10-26T10:22:26.929Z,71.89
2022-10-26T10:23:26.896Z,71.52
2022-10-26T10:24:26.860Z,73.06
2022-10-26T10:25:26.835Z,73.19
2022-10-26T10:26:26.793Z,71.36
2022-10-26T10:27:26.807Z,72.02
2022-10-26T10:28:26.731Z,71.76
2022-10-26T10:29:26.713Z,72.72
2022-10-26T10:30:26.660Z,71.29
2022-10-26T10:31:26.631Z,72.45
2022-10-26T10:32:26.598Z,72.32
2022-10-26T10:33:26.571Z,70.79
2022-10-26T10:34:26.531Z,71.12
2022-10-26T10:35:26.510Z,71.79
2022-10-26T10:36:26.477Z,70.79
2022-10-26T10:37:26.443Z,71.45
2022-10-26T10:38:26.404Z,70.76
2022-10-26T10:40:26.336Z,70.62
2022-10-26T10:41:26.312Z,70.42
2022-10-26T10:42:26.269Z,71.09
2022-10-26T10:43:26.329Z,71.92
2022-10-26T10:44:26.206Z,72.32
2022-10-26T10:45:26.173Z,72.19
2022-10-26T10:46:26.135Z,72.19
2022-10-26T10:47:26.148Z,71.69
2022-10-26T10:48:26.074Z,72.72
2022-10-26T10:49:26.040Z,72.99
2022-10-26T10:50:26.005Z,72.52
2022-10-26T10:51:25.974Z,73.46
2022-10-26T10:52:25.955Z,75.26
2022-10-26T10:53:25.914Z,73.92
2022-10-26T10:54:25.876Z,74.42
2022-10-26T10:55:25.842Z,73.96
2022-10-26T10:56:25.814Z,74.19
2022-10-26T10:57:25.778Z,74.46
2022-10-26T10:58:25.760Z,74.62
2022-10-26T10:59:25.710Z,73.42
2022-10-26T11:00:25.685Z,73.22
2022-10-26T11:01:25.715Z,73.49
2022-10-26T11:02:25.767Z,73.15
2022-10-26T11:03:25.991Z,73.49
2022-10-26T11:04:25.548Z,74.25
2022-10-26T11:05:27.365Z,73.09
2022-10-26T11:06:25.482Z,74.66
2022-10-26T11:07:25.450Z,76.15
2022-10-26T11:08:25.419Z,76.06
2022-10-26T11:09:25.400Z,74.92
2022-10-26T11:10:25.352Z,74.32
2022-10-26T11:11:25.317Z,74.42
2022-10-26T11:12:25.343Z,74.12
2022-10-26T11:13:25.254Z,74.82
2022-10-26T11:14:25.219Z,74.72
2022-10-26T11:15:25.200Z,75.02
2022-10-26T11:16:25.171Z,75.42
2022-10-26T11:17:25.123Z,75.12
2022-10-26T11:18:25.088Z,74.79
2022-10-26T11:19:25.058Z,74.38
2022-10-26T11:20:25.021Z,74.98
2022-10-26T11:21:24.993Z,73.75
2022-10-26T11:22:24.972Z,74.29
2022-10-26T11:23:24.927Z,73.65
2022-10-26T11:24:24.890Z,73.19
2022-10-26T11:25:24.862Z,73.55
2022-10-26T11:26:24.827Z,73.95
2022-10-26T11:27:24.797Z,73.45
2022-10-26T11:28:24.774Z,73.75
2022-10-26T11:29:24.767Z,74.79
2022-10-26T11:30:24.700Z,74.38
2022-10-26T11:31:24.686Z,74.15
2022-10-26T11:32:24.630Z,74.25
2022-10-26T11:33:24.607Z,74.41
2022-10-26T11:34:24.579Z,73.91
2022-10-26T11:35:24.572Z,74.21
2022-10-26T11:36:24.502Z,73.61
2022-10-26T11:37:24.474Z,74.32
2022-10-26T11:38:38.779Z,74.68
2022-10-26T11:39:24.417Z,73.72
2022-10-26T11:40:24.382Z,73.98
2022-10-26T11:41:24.338Z,73.42
2022-10-26T11:42:24.305Z,74.02
2022-10-26T11:43:24.270Z,73.48
2022-10-26T11:44:24.251Z,74.58
2022-10-26T11:45:24.217Z,72.38
2022-10-26T11:46:24.183Z,73.72
2022-10-26T11:47:24.145Z,74.51
2022-10-26T11:48:24.106Z,72.45
2022-10-26T11:49:24.078Z,73.25
2022-10-26T11:50:24.047Z,73.82
2022-10-26T11:51:24.024Z,74.68
2022-10-26T11:52:23.979Z,75.74
2022-10-26T11:53:23.952Z,74.79
2022-10-26T11:54:23.916Z,74.75
2022-10-26T11:55:23.882Z,74.75
2022-10-26T11:56:23.860Z,74.79
2022-10-26T11:57:23.817Z,74.88
2022-10-26T11:58:23.782Z,74.98
2022-10-26T11:59:24.580Z,75.28
2022-10-26T12:00:23.716Z,75.62
2022-10-26T12:01:23.780Z,75.42
2022-10-26T12:02:23.649Z,76.18
2022-10-26T12:03:23.625Z,75.48
2022-10-26T12:04:23.585Z,75.98
2022-10-26T12:05:23.557Z,75.38
2022-10-26T12:06:23.520Z,75.92
2022-10-26T12:07:23.506Z,75.72
2022-10-26T12:08:23.452Z,75.76
2022-10-26T12:09:23.420Z,75.96
2022-10-26T12:10:23.942Z,75.56
2022-10-26T12:11:23.358Z,76.52
2022-10-26T12:12:23.320Z,75.85
2022-10-26T12:13:23.311Z,76.56
2022-10-26T12:14:23.253Z,76.56
2022-10-26T12:15:30.748Z,75.82
2022-10-26T12:16:23.197Z,75.82
2022-10-26T12:17:23.158Z,74.85
2022-10-26T12:18:36.789Z,76.06
2022-10-26T12:19:23.128Z,76.12
2022-10-26T12:20:23.053Z,75.92
2022-10-26T12:21:23.022Z,75.96
2022-10-26T12:22:23.002Z,75.96
2022-10-26T12:23:33.984Z,76.45
2022-10-26T12:24:22.925Z,76.35
2022-10-26T12:25:22.896Z,76.26
2022-10-26T12:26:22.855Z,76.56
2022-10-26T12:27:22.820Z,77.66
2022-10-26T12:28:22.783Z,76.59
2022-10-26T12:29:22.748Z,77.09
2022-10-26T12:30:22.719Z,77.36
2022-10-26T12:31:22.729Z,77.59
2022-10-26T12:32:22.660Z,76.76
2022-10-26T12:33:22.619Z,76.79
2022-10-26T12:34:22.579Z,77.69
2022-10-26T12:35:22.549Z,76.79
2022-10-26T12:36:22.516Z,77.25
2022-10-26T12:37:22.496Z,76.29
2022-10-26T12:38:22.447Z,76.65
2022-10-26T12:39:22.411Z,77.39
2022-10-26T12:40:22.379Z,76.65
2022-10-26T12:41:22.346Z,75.96
2022-10-26T12:42:22.312Z,76.02
2022-10-26T12:43:22.298Z,75.82
2022-10-26T12:44:22.244Z,77.08
2022-10-26T12:45:22.213Z,76.08
2022-10-26T12:46:22.175Z,75.89
2022-10-26T12:47:22.141Z,74.75
2022-10-26T12:48:34.774Z,75.15
2022-10-26T12:49:22.091Z,75.09
2022-10-26T12:50:22.047Z,75.38
2022-10-26T12:51:22.045Z,76.08
2022-10-26T12:52:21.975Z,75.89
2022-10-26T12:53:21.938Z,77.12
2022-10-26T12:54:21.900Z,75.82
2022-10-26T12:55:21.879Z,76.15